Terminal Aerodrome Forecast
Issued by NWS Bismarck, ND

Home | Current Version | Previous Version | Text Only | Print | Product List | Glossary On
Versions: 1 2 3 4 5 6 7 8 9 10 11 12 13 14 15 16
000
FTUS43 KBIS 221139
TAFISN
TAF
KISN 221139Z 2212/2312 22005KT P6SM FEW250
     FM221400 21011KT P6SM BKN100 WS020/25030KT
     FM221700 24017G28KT P6SM VCSH BKN050 OVC070
     FM222200 27018G26KT P6SM BKN110
     FM230200 28016G24KT P6SM SCT080 SCT140 WS020/28045KT
     FM231000 29026G37KT P6SM VCSH BKN070 WS020/31045KT=

USA.gov is the U.S. government's official web portal to all federal, state and local government web resources and services.